sensor_id;sensor_type;location;lat;lon;timestamp;temperature;humidity
33368;DHT22;19724;51.114;13.906;2023-04-09T00:01:27;0.90;99.90
33368;DHT22;19724;51.114;13.906;2023-04-09T00:03:52;0.90;99.90
33368;DHT22;19724;51.114;13.906;2023-04-09T00:06:18;0.90;99.90
33368;DHT22;19724;51.114;13.906;2023-04-09T00:08:43;0.80;99.90
33368;DHT22;19724;51.114;13.906;2023-04-09T00:11:08;0.80;99.90
33368;DHT22;19724;51.114;13.906;2023-04-09T00:13:34;0.70;99.90
33368;DHT22;19724;51.114;13.906;2023-04-09T00:16:00;0.80;99.90
33368;DHT22;19724;51.114;13.906;2023-04-09T00:18:26;0.70;99.90
33368;DHT22;19724;51.114;13.906;2023-04-09T00:20:51;0.70;99.90
33368;DHT22;19724;51.114;13.906;2023-04-09T00:23:17;0.80;99.90
33368;DHT22;19724;51.114;13.906;2023-04-09T00:25:42;0.80;99.90
33368;DHT22;19724;51.114;13.906;2023-04-09T00:28:07;0.70;99.90
33368;DHT22;19724;51.114;13.906;2023-04-09T00:30:33;0.70;99.90
33368;DHT22;19724;51.114;13.906;2023-04-09T00:32:58;0.70;99.90
33368;DHT22;19724;51.114;13.906;2023-04-09T00:35:24;0.60;99.90
33368;DHT22;19724;51.114;13.906;2023-04-09T00:37:49;0.80;99.90
33368;DHT22;19724;51.114;13.906;2023-04-09T00:40:15;0.70;99.90
33368;DHT22;19724;51.114;13.906;2023-04-09T00:42:40;0.70;99.90
33368;DHT22;19724;51.114;13.906;2023-04-09T00:45:07;0.70;99.90
33368;DHT22;19724;51.114;13.906;2023-04-09T00:47:33;0.80;99.90
33368;DHT22;19724;51.114;13.906;2023-04-09T00:50:00;0.80;99.90
33368;DHT22;19724;51.114;13.906;2023-04-09T00:52:26;0.80;99.90
33368;DHT22;19724;51.114;13.906;2023-04-09T00:54:52;0.90;99.90
33368;DHT22;19724;51.114;13.906;2023-04-09T00:57:18;1.00;99.90
33368;DHT22;19724;51.114;13.906;2023-04-09T00:59:44;0.90;99.90
33368;DHT22;19724;51.114;13.906;2023-04-09T01:02:09;1.00;99.90
33368;DHT22;19724;51.114;13.906;2023-04-09T01:04:35;1.00;99.90
33368;DHT22;19724;51.114;13.906;2023-04-09T01:09:40;1.00;99.90
33368;DHT22;19724;51.114;13.906;2023-04-09T01:12:20;1.00;99.90
33368;DHT22;19724;51.114;13.906;2023-04-09T01:14:58;1.00;99.90
33368;DHT22;19724;51.114;13.906;2023-04-09T01:17:35;1.20;99.90
33368;DHT22;19724;51.114;13.906;2023-04-09T01:20:03;1.10;99.90
33368;DHT22;19724;51.114;13.906;2023-04-09T01:23:03;1.10;99.90
33368;DHT22;19724;51.114;13.906;2023-04-09T01:28:30;1.20;99.90
33368;DHT22;19724;51.114;13.906;2023-04-09T01:31:06;1.20;99.90
33368;DHT22;19724;51.114;13.906;2023-04-09T01:33:33;1.20;99.90
33368;DHT22;19724;51.114;13.906;2023-04-09T01:35:59;1.20;99.90
33368;DHT22;19724;51.114;13.906;2023-04-09T01:38:26;1.20;99.90
33368;DHT22;19724;51.114;13.906;2023-04-09T01:40:53;1.20;99.90
33368;DHT22;19724;51.114;13.906;2023-04-09T01:43:20;1.20;99.90
33368;DHT22;19724;51.114;13.906;2023-04-09T01:45:46;1.10;99.90
33368;DHT22;19724;51.114;13.906;2023-04-09T01:48:13;1.10;99.90
33368;DHT22;19724;51.114;13.906;2023-04-09T01:50:39;1.00;99.90
33368;DHT22;19724;51.114;13.906;2023-04-09T01:53:05;1.00;99.90
33368;DHT22;19724;51.114;13.906;2023-04-09T01:55:30;1.10;99.90
33368;DHT22;19724;51.114;13.906;2023-04-09T01:57:56;1.10;99.90
33368;DHT22;19724;51.114;13.906;2023-04-09T02:00:23;1.10;99.90
33368;DHT22;19724;51.114;13.906;2023-04-09T02:03:04;1.00;99.90
33368;DHT22;19724;51.114;13.906;2023-04-09T02:05:35;1.10;99.90
33368;DHT22;19724;51.114;13.906;2023-04-09T02:08:02;1.00;99.90
33368;DHT22;19724;51.114;13.906;2023-04-09T02:10:29;1.00;99.90
33368;DHT22;19724;51.114;13.906;2023-04-09T02:12:57;1.00;99.90
33368;DHT22;19724;51.114;13.906;2023-04-09T02:15:25;1.00;99.90
33368;DHT22;19724;51.114;13.906;2023-04-09T02:17:52;1.00;99.90
33368;DHT22;19724;51.114;13.906;2023-04-09T02:20:18;1.00;99.90
33368;DHT22;19724;51.114;13.906;2023-04-09T02:22:44;1.00;99.90
33368;DHT22;19724;51.114;13.906;2023-04-09T02:25:10;1.00;99.90
33368;DHT22;19724;51.114;13.906;2023-04-09T02:27:36;1.00;99.90
33368;DHT22;19724;51.114;13.906;2023-04-09T02:30:01;1.00;99.90
33368;DHT22;19724;51.114;13.906;2023-04-09T02:32:28;1.00;99.90
33368;DHT22;19724;51.114;13.906;2023-04-09T02:34:53;1.00;99.90
33368;DHT22;19724;51.114;13.906;2023-04-09T02:37:19;1.00;99.90
33368;DHT22;19724;51.114;13.906;2023-04-09T02:39:44;1.10;99.90
33368;DHT22;19724;51.114;13.906;2023-04-09T02:42:10;1.10;99.90
33368;DHT22;19724;51.114;13.906;2023-04-09T02:44:35;1.10;99.90
33368;DHT22;19724;51.114;13.906;2023-04-09T02:47:01;1.10;99.90
33368;DHT22;19724;51.114;13.906;2023-04-09T02:49:26;1.10;99.90
33368;DHT22;19724;51.114;13.906;2023-04-09T02:51:52;1.00;99.90
33368;DHT22;19724;51.114;13.906;2023-04-09T02:54:17;1.10;99.90
33368;DHT22;19724;51.114;13.906;2023-04-09T02:56:42;1.00;99.90
33368;DHT22;19724;51.114;13.906;2023-04-09T02:59:08;1.10;99.90
33368;DHT22;19724;51.114;13.906;2023-04-09T03:01:33;1.10;99.90
33368;DHT22;19724;51.114;13.906;2023-04-09T03:03:59;1.10;99.90
33368;DHT22;19724;51.114;13.906;2023-04-09T03:06:25;1.10;99.90
33368;DHT22;19724;51.114;13.906;2023-04-09T03:08:51;1.10;99.90
33368;DHT22;19724;51.114;13.906;2023-04-09T03:11:16;1.10;99.90
33368;DHT22;19724;51.114;13.906;2023-04-09T03:13:42;1.10;99.90
33368;DHT22;19724;51.114;13.906;2023-04-09T03:16:07;1.10;99.90
33368;DHT22;19724;51.114;13.906;2023-04-09T03:18:35;1.20;99.90
33368;DHT22;19724;51.114;13.906;2023-04-09T03:21:04;1.20;99.90
33368;DHT22;19724;51.114;13.906;2023-04-09T03:23:30;1.20;99.90
33368;DHT22;19724;51.114;13.906;2023-04-09T03:26:00;1.20;99.90
33368;DHT22;19724;51.114;13.906;2023-04-09T03:28:26;1.30;99.90
33368;DHT22;19724;51.114;13.906;2023-04-09T03:30:51;1.20;99.90
33368;DHT22;19724;51.114;13.906;2023-04-09T03:33:17;1.20;99.90
33368;DHT22;19724;51.114;13.906;2023-04-09T03:35:43;1.20;99.90
33368;DHT22;19724;51.114;13.906;2023-04-09T03:38:09;1.20;99.90
33368;DHT22;19724;51.114;13.906;2023-04-09T03:40:34;1.30;99.90
33368;DHT22;19724;51.114;13.906;2023-04-09T03:43:00;1.30;99.90
33368;DHT22;19724;51.114;13.906;2023-04-09T03:45:26;1.30;99.90
33368;DHT22;19724;51.114;13.906;2023-04-09T03:47:51;1.30;99.90
33368;DHT22;19724;51.114;13.906;2023-04-09T03:50:17;1.30;99.90
33368;DHT22;19724;51.114;13.906;2023-04-09T03:52:44;1.30;99.90
33368;DHT22;19724;51.114;13.906;2023-04-09T03:55:09;1.30;99.90
33368;DHT22;19724;51.114;13.906;2023-04-09T03:57:35;1.30;99.90
33368;DHT22;19724;51.114;13.906;2023-04-09T04:00:00;1.20;99.90
33368;DHT22;19724;51.114;13.906;2023-04-09T04:02:26;1.20;99.90
33368;DHT22;19724;51.114;13.906;2023-04-09T04:04:54;1.30;99.90
33368;DHT22;19724;51.114;13.906;2023-04-09T04:07:20;1.20;99.90
33368;DHT22;19724;51.114;13.906;2023-04-09T04:09:45;1.30;99.90
33368;DHT22;19724;51.114;13.906;2023-04-09T04:12:10;1.30;99.90
33368;DHT22;19724;51.114;13.906;2023-04-09T04:14:36;1.30;99.90
33368;DHT22;19724;51.114;13.906;2023-04-09T04:17:01;1.40;99.90
33368;DHT22;19724;51.114;13.906;2023-04-09T04:19:27;1.30;99.90
33368;DHT22;19724;51.114;13.906;2023-04-09T04:21:52;1.30;99.90
33368;DHT22;19724;51.114;13.906;2023-04-09T04:24:18;1.30;99.90
33368;DHT22;19724;51.114;13.906;2023-04-09T04:26:43;1.30;99.90
33368;DHT22;19724;51.114;13.906;2023-04-09T04:29:09;1.30;99.90
33368;DHT22;19724;51.114;13.906;2023-04-09T04:31:34;1.30;99.90
33368;DHT22;19724;51.114;13.906;2023-04-09T04:34:00;1.30;99.90
33368;DHT22;19724;51.114;13.906;2023-04-09T04:36:25;1.30;99.90
33368;DHT22;19724;51.114;13.906;2023-04-09T04:38:51;1.40;99.90
33368;DHT22;19724;51.114;13.906;2023-04-09T04:41:16;1.40;99.90
33368;DHT22;19724;51.114;13.906;2023-04-09T04:43:42;1.40;99.90
33368;DHT22;19724;51.114;13.906;2023-04-09T04:46:07;1.40;99.90
33368;DHT22;19724;51.114;13.906;2023-04-09T04:48:33;1.40;99.90
33368;DHT22;19724;51.114;13.906;2023-04-09T04:50:59;1.40;99.90
33368;DHT22;19724;51.114;13.906;2023-04-09T04:53:25;1.50;99.90
33368;DHT22;19724;51.114;13.906;2023-04-09T04:55:52;1.50;99.90
33368;DHT22;19724;51.114;13.906;2023-04-09T04:58:17;1.60;99.90
33368;DHT22;19724;51.114;13.906;2023-04-09T05:00:43;1.50;99.90
33368;DHT22;19724;51.114;13.906;2023-04-09T05:03:09;1.60;99.90
33368;DHT22;19724;51.114;13.906;2023-04-09T05:05:34;1.70;99.90
33368;DHT22;19724;51.114;13.906;2023-04-09T05:08:00;1.70;99.90
33368;DHT22;19724;51.114;13.906;2023-04-09T05:10:26;1.70;99.90
33368;DHT22;19724;51.114;13.906;2023-04-09T05:12:51;1.80;99.90
33368;DHT22;19724;51.114;13.906;2023-04-09T05:15:17;1.90;99.90
33368;DHT22;19724;51.114;13.906;2023-04-09T05:17:43;1.90;99.90
33368;DHT22;19724;51.114;13.906;2023-04-09T05:20:09;2.00;99.90
33368;DHT22;19724;51.114;13.906;2023-04-09T05:22:35;2.00;99.90
33368;DHT22;19724;51.114;13.906;2023-04-09T05:25:01;2.10;99.90
33368;DHT22;19724;51.114;13.906;2023-04-09T05:27:26;2.10;99.90
33368;DHT22;19724;51.114;13.906;2023-04-09T05:29:52;2.30;99.90
33368;DHT22;19724;51.114;13.906;2023-04-09T05:32:18;2.40;99.90
33368;DHT22;19724;51.114;13.906;2023-04-09T05:34:43;2.50;99.90
33368;DHT22;19724;51.114;13.906;2023-04-09T05:37:09;2.60;99.90
33368;DHT22;19724;51.114;13.906;2023-04-09T05:39:34;2.60;99.90
33368;DHT22;19724;51.114;13.906;2023-04-09T05:42:00;2.60;99.90
33368;DHT22;19724;51.114;13.906;2023-04-09T05:44:25;2.60;99.90
33368;DHT22;19724;51.114;13.906;2023-04-09T05:46:51;2.60;99.90
33368;DHT22;19724;51.114;13.906;2023-04-09T05:49:16;2.60;99.90
33368;DHT22;19724;51.114;13.906;2023-04-09T05:51:42;2.70;99.90
33368;DHT22;19724;51.114;13.906;2023-04-09T05:54:08;2.70;99.90
33368;DHT22;19724;51.114;13.906;2023-04-09T05:56:33;2.80;99.90
33368;DHT22;19724;51.114;13.906;2023-04-09T05:58:59;2.80;99.90
33368;DHT22;19724;51.114;13.906;2023-04-09T06:01:24;2.80;99.90
33368;DHT22;19724;51.114;13.906;2023-04-09T06:03:50;2.90;99.90
33368;DHT22;19724;51.114;13.906;2023-04-09T06:06:15;2.90;99.90
33368;DHT22;19724;51.114;13.906;2023-04-09T06:08:41;3.10;99.90
33368;DHT22;19724;51.114;13.906;2023-04-09T06:11:10;3.10;99.90
33368;DHT22;19724;51.114;13.906;2023-04-09T06:13:36;3.30;99.90
33368;DHT22;19724;51.114;13.906;2023-04-09T06:16:08;3.30;99.90
33368;DHT22;19724;51.114;13.906;2023-04-09T06:18:36;3.40;99.90
33368;DHT22;19724;51.114;13.906;2023-04-09T06:21:06;3.50;99.90
33368;DHT22;19724;51.114;13.906;2023-04-09T06:23:33;3.60;99.90
33368;DHT22;19724;51.114;13.906;2023-04-09T06:25:59;3.70;99.90
33368;DHT22;19724;51.114;13.906;2023-04-09T06:28:26;3.80;99.90
33368;DHT22;19724;51.114;13.906;2023-04-09T06:30:52;3.90;99.90
33368;DHT22;19724;51.114;13.906;2023-04-09T06:33:19;4.00;99.90
33368;DHT22;19724;51.114;13.906;2023-04-09T06:35:44;4.20;99.90
33368;DHT22;19724;51.114;13.906;2023-04-09T06:38:10;4.40;99.90
33368;DHT22;19724;51.114;13.906;2023-04-09T06:40:39;4.50;99.90
33368;DHT22;19724;51.114;13.906;2023-04-09T06:43:05;4.60;99.90
33368;DHT22;19724;51.114;13.906;2023-04-09T06:45:31;4.80;99.90
33368;DHT22;19724;51.114;13.906;2023-04-09T06:47:57;4.90;99.90
33368;DHT22;19724;51.114;13.906;2023-04-09T06:50:23;5.00;99.90
33368;DHT22;19724;51.114;13.906;2023-04-09T06:52:49;5.20;99.90
33368;DHT22;19724;51.114;13.906;2023-04-09T06:55:15;5.30;99.90
33368;DHT22;19724;51.114;13.906;2023-04-09T06:57:40;5.50;99.90
33368;DHT22;19724;51.114;13.906;2023-04-09T07:00:06;5.70;99.90
33368;DHT22;19724;51.114;13.906;2023-04-09T07:02:33;5.80;99.90
33368;DHT22;19724;51.114;13.906;2023-04-09T07:04:58;5.90;99.90
33368;DHT22;19724;51.114;13.906;2023-04-09T07:07:24;6.00;99.90
33368;DHT22;19724;51.114;13.906;2023-04-09T07:09:49;6.20;99.90
33368;DHT22;19724;51.114;13.906;2023-04-09T07:12:28;6.40;99.90
33368;DHT22;19724;51.114;13.906;2023-04-09T07:15:04;6.50;99.90
33368;DHT22;19724;51.114;13.906;2023-04-09T07:17:30;6.70;99.90
33368;DHT22;19724;51.114;13.906;2023-04-09T07:19:56;6.80;99.90
33368;DHT22;19724;51.114;13.906;2023-04-09T07:22:22;7.00;99.90
33368;DHT22;19724;51.114;13.906;2023-04-09T07:24:48;7.10;99.90
33368;DHT22;19724;51.114;13.906;2023-04-09T07:27:18;7.20;99.90
33368;DHT22;19724;51.114;13.906;2023-04-09T07:29:45;7.30;99.90
33368;DHT22;19724;51.114;13.906;2023-04-09T07:32:10;7.40;99.90
33368;DHT22;19724;51.114;13.906;2023-04-09T07:34:36;7.50;99.90
33368;DHT22;19724;51.114;13.906;2023-04-09T07:37:02;7.60;99.90
33368;DHT22;19724;51.114;13.906;2023-04-09T07:39:27;7.70;99.90
33368;DHT22;19724;51.114;13.906;2023-04-09T07:41:53;7.70;99.90
33368;DHT22;19724;51.114;13.906;2023-04-09T07:44:18;7.90;99.90
33368;DHT22;19724;51.114;13.906;2023-04-09T07:46:44;8.00;99.90
33368;DHT22;19724;51.114;13.906;2023-04-09T07:49:10;8.20;99.90
33368;DHT22;19724;51.114;13.906;2023-04-09T07:51:35;8.40;99.90
33368;DHT22;19724;51.114;13.906;2023-04-09T07:54:01;8.50;99.90
33368;DHT22;19724;51.114;13.906;2023-04-09T07:56:26;8.60;99.90
33368;DHT22;19724;51.114;13.906;2023-04-09T07:58:51;8.60;99.90
33368;DHT22;19724;51.114;13.906;2023-04-09T08:01:17;8.80;99.90
33368;DHT22;19724;51.114;13.906;2023-04-09T08:03:42;8.80;99.90
33368;DHT22;19724;51.114;13.906;2023-04-09T08:06:08;8.90;99.90
33368;DHT22;19724;51.114;13.906;2023-04-09T08:08:33;9.10;99.90
33368;DHT22;19724;51.114;13.906;2023-04-09T08:11:00;9.20;99.90
33368;DHT22;19724;51.114;13.906;2023-04-09T08:13:25;9.30;99.90
33368;DHT22;19724;51.114;13.906;2023-04-09T08:15:51;9.50;99.90
33368;DHT22;19724;51.114;13.906;2023-04-09T08:18:16;9.70;99.90
33368;DHT22;19724;51.114;13.906;2023-04-09T08:20:42;9.80;99.90
33368;DHT22;19724;51.114;13.906;2023-04-09T08:23:10;10.00;99.90
33368;DHT22;19724;51.114;13.906;2023-04-09T08:25:36;10.00;99.90
33368;DHT22;19724;51.114;13.906;2023-04-09T08:28:01;10.10;99.90
33368;DHT22;19724;51.114;13.906;2023-04-09T08:30:27;10.20;99.90
33368;DHT22;19724;51.114;13.906;2023-04-09T08:32:52;10.30;99.90
33368;DHT22;19724;51.114;13.906;2023-04-09T08:35:18;10.60;99.90
33368;DHT22;19724;51.114;13.906;2023-04-09T08:37:43;10.80;99.90
33368;DHT22;19724;51.114;13.906;2023-04-09T08:40:10;11.10;99.90
33368;DHT22;19724;51.114;13.906;2023-04-09T08:42:37;11.20;99.90
33368;DHT22;19724;51.114;13.906;2023-04-09T08:45:07;11.40;99.90
33368;DHT22;19724;51.114;13.906;2023-04-09T08:47:35;11.60;99.90
33368;DHT22;19724;51.114;13.906;2023-04-09T08:50:00;11.80;99.90
33368;DHT22;19724;51.114;13.906;2023-04-09T08:52:31;12.00;99.90
33368;DHT22;19724;51.114;13.906;2023-04-09T08:54:57;12.10;99.90
33368;DHT22;19724;51.114;13.906;2023-04-09T08:57:22;12.20;99.90
33368;DHT22;19724;51.114;13.906;2023-04-09T08:59:48;12.50;99.90
33368;DHT22;19724;51.114;13.906;2023-04-09T09:02:13;12.70;99.90
33368;DHT22;19724;51.114;13.906;2023-04-09T09:04:46;12.90;99.90
33368;DHT22;19724;51.114;13.906;2023-04-09T09:07:13;13.10;99.90
33368;DHT22;19724;51.114;13.906;2023-04-09T09:09:55;13.10;99.90
33368;DHT22;19724;51.114;13.906;2023-04-09T09:12:39;13.20;99.90
33368;DHT22;19724;51.114;13.906;2023-04-09T09:15:24;13.40;99.90
33368;DHT22;19724;51.114;13.906;2023-04-09T09:17:57;13.60;99.90
33368;DHT22;19724;51.114;13.906;2023-04-09T09:20:24;13.80;99.90
33368;DHT22;19724;51.114;13.906;2023-04-09T09:22:53;13.90;99.90
33368;DHT22;19724;51.114;13.906;2023-04-09T09:25:19;13.90;99.90
33368;DHT22;19724;51.114;13.906;2023-04-09T09:27:48;14.10;99.90
33368;DHT22;19724;51.114;13.906;2023-04-09T09:30:24;14.40;99.90
33368;DHT22;19724;51.114;13.906;2023-04-09T09:33:10;14.60;99.90
33368;DHT22;19724;51.114;13.906;2023-04-09T09:35:52;14.50;99.90
33368;DHT22;19724;51.114;13.906;2023-04-09T09:38:19;14.60;99.90
33368;DHT22;19724;51.114;13.906;2023-04-09T09:40:45;14.70;99.90
33368;DHT22;19724;51.114;13.906;2023-04-09T09:43:11;14.70;99.90
33368;DHT22;19724;51.114;13.906;2023-04-09T09:45:37;14.60;99.90
33368;DHT22;19724;51.114;13.906;2023-04-09T09:48:04;14.60;99.90
33368;DHT22;19724;51.114;13.906;2023-04-09T09:50:30;14.60;99.90
33368;DHT22;19724;51.114;13.906;2023-04-09T09:53:04;14.50;99.90
33368;DHT22;19724;51.114;13.906;2023-04-09T09:55:31;14.50;99.90
33368;DHT22;19724;51.114;13.906;2023-04-09T09:58:01;14.50;99.90
33368;DHT22;19724;51.114;13.906;2023-04-09T10:00:31;14.60;99.90
33368;DHT22;19724;51.114;13.906;2023-04-09T10:03:02;14.50;99.90
33368;DHT22;19724;51.114;13.906;2023-04-09T10:05:30;14.50;99.90
33368;DHT22;19724;51.114;13.906;2023-04-09T10:07:56;14.50;99.90
33368;DHT22;19724;51.114;13.906;2023-04-09T10:10:23;14.50;99.90
33368;DHT22;19724;51.114;13.906;2023-04-09T10:12:50;14.60;99.90
33368;DHT22;19724;51.114;13.906;2023-04-09T10:15:17;14.60;99.90
33368;DHT22;19724;51.114;13.906;2023-04-09T10:17:43;14.50;99.90
33368;DHT22;19724;51.114;13.906;2023-04-09T10:20:16;14.50;99.90
33368;DHT22;19724;51.114;13.906;2023-04-09T10:22:47;14.60;99.90
33368;DHT22;19724;51.114;13.906;2023-04-09T10:25:14;14.50;99.90
33368;DHT22;19724;51.114;13.906;2023-04-09T10:27:41;14.40;99.90
33368;DHT22;19724;51.114;13.906;2023-04-09T10:30:09;14.30;99.90
33368;DHT22;19724;51.114;13.906;2023-04-09T10:32:35;14.20;99.90
33368;DHT22;19724;51.114;13.906;2023-04-09T10:35:02;14.20;99.90
33368;DHT22;19724;51.114;13.906;2023-04-09T10:37:28;14.10;99.90
33368;DHT22;19724;51.114;13.906;2023-04-09T10:39:54;14.10;99.90
33368;DHT22;19724;51.114;13.906;2023-04-09T10:42:33;14.10;99.90
33368;DHT22;19724;51.114;13.906;2023-04-09T10:45:08;14.10;99.90
33368;DHT22;19724;51.114;13.906;2023-04-09T10:47:35;14.00;99.90
33368;DHT22;19724;51.114;13.906;2023-04-09T10:50:14;14.10;99.90
33368;DHT22;19724;51.114;13.906;2023-04-09T10:52:41;14.20;99.90
33368;DHT22;19724;51.114;13.906;2023-04-09T10:55:07;14.30;99.90
33368;DHT22;19724;51.114;13.906;2023-04-09T10:57:32;14.20;99.90
33368;DHT22;19724;51.114;13.906;2023-04-09T10:59:58;14.10;99.90
33368;DHT22;19724;51.114;13.906;2023-04-09T11:05:29;14.10;99.90
33368;DHT22;19724;51.114;13.906;2023-04-09T11:08:12;14.10;99.90
33368;DHT22;19724;51.114;13.906;2023-04-09T11:10:39;14.30;99.90
33368;DHT22;19724;51.114;13.906;2023-04-09T11:13:05;14.30;99.90
33368;DHT22;19724;51.114;13.906;2023-04-09T11:15:33;14.40;99.90
33368;DHT22;19724;51.114;13.906;2023-04-09T11:17:59;14.40;99.90
33368;DHT22;19724;51.114;13.906;2023-04-09T11:20:26;14.40;99.90
33368;DHT22;19724;51.114;13.906;2023-04-09T11:22:53;14.50;99.90
33368;DHT22;19724;51.114;13.906;2023-04-09T11:25:21;14.50;99.90
33368;DHT22;19724;51.114;13.906;2023-04-09T11:27:47;14.70;99.90
33368;DHT22;19724;51.114;13.906;2023-04-09T11:30:13;14.70;99.90
33368;DHT22;19724;51.114;13.906;2023-04-09T11:32:39;14.90;99.90
33368;DHT22;19724;51.114;13.906;2023-04-09T11:35:13;15.00;99.90
33368;DHT22;19724;51.114;13.906;2023-04-09T11:37:39;15.00;99.90
33368;DHT22;19724;51.114;13.906;2023-04-09T11:40:06;15.10;99.90
33368;DHT22;19724;51.114;13.906;2023-04-09T11:42:33;15.10;99.90
33368;DHT22;19724;51.114;13.906;2023-04-09T11:44:59;15.10;99.90
33368;DHT22;19724;51.114;13.906;2023-04-09T11:47:26;15.00;99.90
33368;DHT22;19724;51.114;13.906;2023-04-09T11:49:51;15.10;99.90
33368;DHT22;19724;51.114;13.906;2023-04-09T11:52:18;15.20;99.90
33368;DHT22;19724;51.114;13.906;2023-04-09T11:54:49;15.30;99.90
33368;DHT22;19724;51.114;13.906;2023-04-09T11:57:16;15.60;99.90
33368;DHT22;19724;51.114;13.906;2023-04-09T11:59:41;15.90;99.90
33368;DHT22;19724;51.114;13.906;2023-04-09T12:02:07;16.30;99.90
33368;DHT22;19724;51.114;13.906;2023-04-09T12:04:33;16.60;99.90
33368;DHT22;19724;51.114;13.906;2023-04-09T12:06:58;17.00;99.90
33368;DHT22;19724;51.114;13.906;2023-04-09T12:09:24;17.20;99.90
33368;DHT22;19724;51.114;13.906;2023-04-09T12:11:49;17.60;99.90
33368;DHT22;19724;51.114;13.906;2023-04-09T12:14:16;17.70;99.90
33368;DHT22;19724;51.114;13.906;2023-04-09T12:16:42;17.80;99.90
33368;DHT22;19724;51.114;13.906;2023-04-09T12:19:12;18.00;99.90
33368;DHT22;19724;51.114;13.906;2023-04-09T12:21:48;18.20;99.90
33368;DHT22;19724;51.114;13.906;2023-04-09T12:24:15;18.60;99.90
33368;DHT22;19724;51.114;13.906;2023-04-09T12:26:42;18.90;99.90
33368;DHT22;19724;51.114;13.906;2023-04-09T12:29:07;19.20;99.90
33368;DHT22;19724;51.114;13.906;2023-04-09T12:31:33;19.20;99.90
33368;DHT22;19724;51.114;13.906;2023-04-09T12:33:58;19.20;99.90
33368;DHT22;19724;51.114;13.906;2023-04-09T12:36:24;19.10;99.90
33368;DHT22;19724;51.114;13.906;2023-04-09T12:38:50;19.20;99.90
33368;DHT22;19724;51.114;13.906;2023-04-09T12:41:16;19.10;99.90
33368;DHT22;19724;51.114;13.906;2023-04-09T12:43:41;18.90;99.90
33368;DHT22;19724;51.114;13.906;2023-04-09T12:46:11;18.80;99.90
33368;DHT22;19724;51.114;13.906;2023-04-09T12:48:37;18.70;99.90
33368;DHT22;19724;51.114;13.906;2023-04-09T12:51:02;18.60;99.90
33368;DHT22;19724;51.114;13.906;2023-04-09T12:53:28;18.90;99.90
33368;DHT22;19724;51.114;13.906;2023-04-09T12:55:53;19.30;99.90
33368;DHT22;19724;51.114;13.906;2023-04-09T12:58:20;19.80;99.90
33368;DHT22;19724;51.114;13.906;2023-04-09T13:00:46;20.20;99.90
33368;DHT22;19724;51.114;13.906;2023-04-09T13:03:11;20.30;99.90
33368;DHT22;19724;51.114;13.906;2023-04-09T13:05:36;20.50;99.90
33368;DHT22;19724;51.114;13.906;2023-04-09T13:08:02;20.50;99.90
33368;DHT22;19724;51.114;13.906;2023-04-09T13:10:29;20.40;99.90
33368;DHT22;19724;51.114;13.906;2023-04-09T13:12:55;20.70;99.90
33368;DHT22;19724;51.114;13.906;2023-04-09T13:15:21;20.80;99.90
33368;DHT22;19724;51.114;13.906;2023-04-09T13:17:46;20.90;99.90
33368;DHT22;19724;51.114;13.906;2023-04-09T13:20:12;21.20;99.90
33368;DHT22;19724;51.114;13.906;2023-04-09T13:22:38;21.70;99.90
33368;DHT22;19724;51.114;13.906;2023-04-09T13:25:04;21.80;99.90
33368;DHT22;19724;51.114;13.906;2023-04-09T13:27:29;21.60;99.90
33368;DHT22;19724;51.114;13.906;2023-04-09T13:29:55;21.30;99.90
33368;DHT22;19724;51.114;13.906;2023-04-09T13:32:21;21.00;99.90
33368;DHT22;19724;51.114;13.906;2023-04-09T13:34:47;20.60;99.90
33368;DHT22;19724;51.114;13.906;2023-04-09T13:37:13;20.20;99.90
33368;DHT22;19724;51.114;13.906;2023-04-09T13:39:39;19.90;99.90
33368;DHT22;19724;51.114;13.906;2023-04-09T13:42:04;19.80;99.90
33368;DHT22;19724;51.114;13.906;2023-04-09T13:44:30;19.50;99.90
33368;DHT22;19724;51.114;13.906;2023-04-09T13:46:55;19.40;99.90
33368;DHT22;19724;51.114;13.906;2023-04-09T13:49:21;19.40;99.90
33368;DHT22;19724;51.114;13.906;2023-04-09T13:51:47;19.30;99.90
33368;DHT22;19724;51.114;13.906;2023-04-09T13:54:13;19.30;99.90
33368;DHT22;19724;51.114;13.906;2023-04-09T13:56:39;19.30;99.90
33368;DHT22;19724;51.114;13.906;2023-04-09T13:59:04;19.40;99.90
33368;DHT22;19724;51.114;13.906;2023-04-09T14:01:30;19.30;99.90
33368;DHT22;19724;51.114;13.906;2023-04-09T14:03:56;19.30;99.90
33368;DHT22;19724;51.114;13.906;2023-04-09T14:06:21;19.30;99.90
33368;DHT22;19724;51.114;13.906;2023-04-09T14:08:47;19.20;99.90
33368;DHT22;19724;51.114;13.906;2023-04-09T14:11:12;19.20;99.90
33368;DHT22;19724;51.114;13.906;2023-04-09T14:13:40;19.30;99.90
33368;DHT22;19724;51.114;13.906;2023-04-09T14:16:06;19.20;99.90
33368;DHT22;19724;51.114;13.906;2023-04-09T14:18:31;19.30;99.90
33368;DHT22;19724;51.114;13.906;2023-04-09T14:20:57;19.50;99.90
33368;DHT22;19724;51.114;13.906;2023-04-09T14:23:25;19.70;99.90
33368;DHT22;19724;51.114;13.906;2023-04-09T14:25:50;19.60;99.90
33368;DHT22;19724;51.114;13.906;2023-04-09T14:28:16;19.40;99.90
33368;DHT22;19724;51.114;13.906;2023-04-09T14:30:42;19.20;99.90
33368;DHT22;19724;51.114;13.906;2023-04-09T14:33:07;18.90;99.90
33368;DHT22;19724;51.114;13.906;2023-04-09T14:35:33;18.80;99.90
33368;DHT22;19724;51.114;13.906;2023-04-09T14:37:58;18.80;99.90
33368;DHT22;19724;51.114;13.906;2023-04-09T14:40:25;19.10;99.90
33368;DHT22;19724;51.114;13.906;2023-04-09T14:42:51;19.40;99.90
33368;DHT22;19724;51.114;13.906;2023-04-09T14:45:16;19.50;99.90
33368;DHT22;19724;51.114;13.906;2023-04-09T14:47:42;19.60;99.90
33368;DHT22;19724;51.114;13.906;2023-04-09T14:50:08;19.80;99.90
33368;DHT22;19724;51.114;13.906;2023-04-09T14:52:34;19.90;99.90
33368;DHT22;19724;51.114;13.906;2023-04-09T14:55:00;20.20;99.90
33368;DHT22;19724;51.114;13.906;2023-04-09T14:57:25;20.60;99.90
33368;DHT22;19724;51.114;13.906;2023-04-09T14:59:51;20.80;99.90
33368;DHT22;19724;51.114;13.906;2023-04-09T15:02:16;20.90;99.90
33368;DHT22;19724;51.114;13.906;2023-04-09T15:04:41;21.00;99.90
33368;DHT22;19724;51.114;13.906;2023-04-09T15:07:07;21.20;99.90
33368;DHT22;19724;51.114;13.906;2023-04-09T15:09:32;21.20;99.90
33368;DHT22;19724;51.114;13.906;2023-04-09T15:11:58;21.30;99.90
33368;DHT22;19724;51.114;13.906;2023-04-09T15:14:25;21.20;99.90
33368;DHT22;19724;51.114;13.906;2023-04-09T15:16:52;21.10;99.90
33368;DHT22;19724;51.114;13.906;2023-04-09T15:19:20;21.30;99.90
33368;DHT22;19724;51.114;13.906;2023-04-09T15:21:45;21.30;99.90
33368;DHT22;19724;51.114;13.906;2023-04-09T15:24:10;21.30;99.90
33368;DHT22;19724;51.114;13.906;2023-04-09T15:26:36;21.40;99.90
33368;DHT22;19724;51.114;13.906;2023-04-09T15:29:04;21.30;99.90
33368;DHT22;19724;51.114;13.906;2023-04-09T15:31:31;21.20;99.90